createdAt,value
2023-04-11T00:04:36.725Z,5.50
2023-04-11T00:09:41.789Z,6.75
2023-04-11T00:14:50.294Z,9.50
2023-04-11T00:19:55.259Z,5.50
2023-04-11T00:24:59.829Z,7.00
2023-04-11T00:30:05.034Z,6.50
2023-04-11T00:35:10.219Z,5.75
2023-04-11T00:40:18.998Z,5.00
2023-04-11T00:45:24.084Z,5.00
2023-04-11T00:50:29.055Z,2.75
2023-04-11T00:55:34.354Z,5.00
2023-04-11T01:00:40.218Z,3.75
2023-04-11T01:05:46.591Z,5.50
2023-04-11T01:10:51.292Z,3.25
2023-04-11T01:15:56.398Z,7.00
2023-04-11T01:21:01.852Z,5.25
2023-04-11T01:26:07.147Z,4.00
2023-04-11T01:31:13.631Z,5.00
2023-04-11T01:36:18.824Z,5.25
2023-04-11T01:41:24.106Z,5.25
2023-04-11T01:46:29.501Z,5.50
2023-04-11T01:51:34.309Z,1.75
2023-04-11T01:56:39.779Z,3.50
2023-04-11T02:01:45.991Z,4.00
2023-04-11T02:06:50.923Z,3.75
2023-04-11T02:11:56.457Z,3.75
2023-04-11T02:17:01.383Z,3.00
2023-04-11T02:22:06.244Z,3.50
2023-04-11T02:27:11.179Z,3.00
2023-04-11T02:32:16.186Z,5.00
2023-04-11T02:37:23.333Z,3.50
2023-04-11T02:42:28.056Z,2.00
2023-04-11T02:47:32.817Z,3.75
2023-04-11T02:52:44.547Z,3.25
2023-04-11T02:57:50.900Z,3.00
2023-04-11T03:02:59.503Z,3.00
2023-04-11T03:08:06.101Z,3.00
2023-04-11T03:13:11.040Z,2.00
2023-04-11T03:18:16.002Z,2.75
2023-04-11T03:23:24.013Z,3.75
2023-04-11T03:28:29.809Z,2.75
2023-04-11T03:33:34.941Z,3.25
2023-04-11T03:38:40.004Z,2.00
2023-04-11T03:43:44.970Z,2.00
2023-04-11T03:48:51.068Z,4.00
2023-04-11T03:53:58.316Z,2.50
2023-04-11T03:59:08.096Z,1.00
2023-04-11T04:04:28.377Z,2.50
2023-04-11T04:09:45.852Z,2.00
2023-04-11T04:14:50.969Z,1.00
2023-04-11T04:19:56.385Z,1.75
2023-04-11T04:25:02.230Z,1.50
2023-04-11T04:30:09.904Z,2.00
2023-04-11T04:35:34.853Z,1.25
2023-04-11T04:40:43.457Z,1.00
2023-04-11T04:45:48.231Z,1.25
2023-04-11T04:50:58.529Z,1.00
2023-04-11T04:56:03.730Z,0.25
2023-04-11T05:01:12.514Z,1.00
2023-04-11T05:06:19.380Z,0.25
2023-04-11T05:11:27.781Z,1.00
2023-04-11T05:16:33.221Z,0.00
2023-04-11T05:21:40.547Z,0.25
2023-04-11T05:26:45.827Z,4.00
2023-04-11T05:31:54.467Z,1.00
2023-04-11T05:36:59.761Z,1.00
2023-04-11T05:42:08.016Z,1.25
2023-04-11T05:47:13.203Z,0.50
2023-04-11T05:52:18.260Z,0.00
2023-04-11T05:57:24.119Z,0.50
2023-04-11T06:02:29.508Z,0.00
2023-04-11T06:07:35.853Z,1.25
2023-04-11T06:12:40.760Z,1.00
2023-04-11T06:17:46.866Z,1.00
2023-04-11T06:22:54.698Z,0.50
2023-04-11T06:27:59.697Z,1.00
2023-04-11T06:33:05.094Z,1.00
2023-04-11T06:38:10.539Z,2.00
2023-04-11T06:43:15.274Z,1.00
2023-04-11T06:48:21.638Z,0.50
2023-04-11T06:53:26.834Z,0.75
2023-04-11T06:58:31.698Z,0.00
2023-04-11T07:03:36.863Z,2.25
2023-04-11T07:08:42.510Z,1.25
2023-04-11T07:13:48.664Z,1.00
2023-04-11T07:18:53.529Z,0.75
2023-04-11T07:23:58.423Z,0.00
2023-04-11T07:29:03.377Z,1.00
2023-04-11T07:34:08.694Z,0.00
2023-04-11T07:39:13.662Z,0.75
2023-04-11T07:44:18.255Z,0.75
2023-04-11T07:49:23.171Z,0.00
2023-04-11T07:54:29.925Z,0.00
2023-04-11T07:59:34.851Z,0.25
2023-04-11T08:04:39.873Z,0.00
2023-04-11T08:09:44.881Z,1.00
2023-04-11T08:14:49.931Z,0.00
2023-04-11T08:19:54.731Z,0.00
2023-04-11T08:24:59.601Z,0.00
2023-04-11T08:30:05.205Z,0.75
2023-04-11T08:35:10.303Z,0.00
2023-04-11T08:40:15.489Z,0.00
2023-04-11T08:45:21.178Z,0.50
2023-04-11T08:50:27.482Z,0.00
2023-04-11T08:55:32.730Z,1.50
2023-04-11T09:00:37.356Z,0.00
2023-04-11T09:05:43.655Z,0.00
2023-04-11T09:10:48.804Z,0.00
2023-04-11T09:16:06.172Z,0.00
2023-04-11T09:21:12.730Z,0.50
2023-04-11T09:26:27.197Z,1.25
2023-04-11T09:31:44.877Z,0.00
2023-04-11T09:36:55.677Z,0.00
2023-04-11T09:42:00.748Z,0.00
2023-04-11T09:47:05.966Z,1.00
2023-04-11T09:52:11.176Z,1.00
2023-04-11T09:57:16.531Z,1.00
2023-04-11T10:02:22.103Z,0.00
2023-04-11T10:07:27.093Z,0.50
2023-04-11T10:12:35.400Z,1.00
2023-04-11T10:17:42.151Z,0.25
2023-04-11T10:22:52.835Z,0.50
2023-04-11T10:28:06.775Z,1.00
2023-04-11T10:33:11.667Z,0.50
2023-04-11T10:38:34.895Z,0.75
2023-04-11T10:43:39.764Z,1.00
2023-04-11T10:49:04.803Z,1.00
2023-04-11T10:54:26.659Z,1.50
2023-04-11T10:59:38.368Z,1.00
2023-04-11T11:04:43.485Z,1.00
2023-04-11T11:09:53.461Z,0.00
2023-04-11T11:14:58.872Z,3.25
2023-04-11T11:20:03.758Z,1.00
2023-04-11T11:25:09.664Z,1.75
2023-04-11T11:30:15.278Z,3.75
2023-04-11T11:35:20.209Z,1.00
2023-04-11T11:40:26.039Z,1.00
2023-04-11T11:45:30.907Z,2.25
2023-04-11T11:50:35.820Z,11.50
2023-04-11T11:55:40.778Z,28.50
2023-04-11T12:00:49.214Z,21.75
2023-04-11T12:05:58.523Z,17.50
2023-04-11T12:11:04.117Z,16.00
2023-04-11T12:16:09.230Z,10.25
2023-04-11T12:21:14.128Z,13.25
2023-04-11T12:26:21.322Z,12.00
2023-04-11T12:31:27.191Z,11.75
2023-04-11T12:41:38.177Z,8.50
2023-04-11T12:46:44.588Z,11.00
2023-04-11T12:51:49.258Z,9.50
2023-04-11T12:56:54.291Z,8.75
2023-04-11T13:01:59.319Z,9.50
2023-04-11T13:07:04.759Z,9.75
2023-04-11T13:12:09.594Z,8.25
2023-04-11T13:17:14.528Z,9.75
2023-04-11T13:22:19.560Z,8.50
2023-04-11T13:27:24.519Z,8.50
2023-04-11T13:32:29.980Z,10.00
2023-04-11T13:37:35.142Z,7.75
2023-04-11T13:42:40.397Z,8.75
2023-04-11T13:47:46.238Z,7.50
2023-04-11T13:52:52.238Z,10.50
2023-04-11T13:57:57.380Z,8.50
2023-04-11T14:03:02.803Z,7.50
2023-04-11T14:08:08.045Z,8.00
2023-04-11T14:13:16.494Z,6.00
2023-04-11T14:18:21.740Z,9.00
2023-04-11T14:23:27.147Z,8.75
2023-04-11T14:28:32.540Z,7.75
2023-04-11T14:33:37.979Z,6.75
2023-04-11T14:38:42.926Z,8.25
2023-04-11T14:43:48.004Z,7.75
2023-04-11T14:48:52.901Z,6.75
2023-04-11T14:53:58.498Z,7.00
2023-04-11T14:59:03.795Z,6.75
2023-04-11T15:04:09.014Z,7.50
2023-04-11T15:09:14.998Z,5.25
2023-04-11T15:14:20.253Z,6.25
2023-04-11T15:19:24.908Z,6.75
2023-04-11T15:24:29.905Z,6.50
2023-04-11T15:29:34.704Z,6.25
2023-04-11T15:34:41.663Z,5.50
2023-04-11T15:39:47.133Z,5.25
2023-04-11T15:44:51.996Z,6.50
2023-04-11T15:49:56.940Z,6.00
2023-04-11T15:55:02.246Z,5.00
2023-04-11T16:00:13.346Z,4.50
2023-04-11T16:05:19.540Z,4.75
2023-04-11T16:10:24.451Z,3.25
2023-04-11T16:15:29.468Z,3.25
2023-04-11T16:20:35.046Z,4.00
2023-04-11T16:25:40.374Z,5.25
2023-04-11T16:30:45.205Z,2.25
2023-04-11T16:35:49.995Z,2.50
2023-04-11T16:40:55.077Z,4.25
2023-04-11T16:46:00.393Z,2.50
2023-04-11T16:51:05.261Z,3.25
2023-04-11T16:56:10.076Z,3.25
2023-04-11T17:01:15.005Z,3.00
2023-04-11T17:06:19.838Z,3.25
2023-04-11T17:11:24.539Z,4.25
2023-04-11T17:16:29.412Z,2.50
2023-04-11T17:21:34.461Z,2.25
2023-04-11T17:26:39.493Z,2.50
2023-04-11T17:31:44.588Z,2.25
2023-04-11T17:36:49.547Z,1.25
2023-04-11T17:41:54.551Z,2.25
2023-04-11T17:46:59.371Z,3.75
2023-04-11T17:52:04.291Z,2.00
2023-04-11T17:57:09.617Z,2.25
2023-04-11T18:02:14.503Z,1.25
2023-04-11T18:07:19.668Z,2.50
2023-04-11T18:12:29.445Z,1.50
2023-04-11T18:17:35.083Z,1.25
2023-04-11T18:22:44.224Z,2.25
2023-04-11T18:27:49.032Z,2.50
2023-04-11T18:32:55.234Z,1.25
2023-04-11T18:38:01.330Z,1.25
2023-04-11T18:43:07.011Z,1.25
2023-04-11T18:48:11.954Z,1.25
2023-04-11T18:53:17.176Z,1.50
2023-04-11T18:58:25.533Z,2.00
2023-04-11T19:03:31.531Z,3.75
2023-04-11T19:08:37.585Z,2.00
2023-04-11T19:13:42.586Z,2.00
2023-04-11T19:18:48.008Z,2.50
2023-04-11T19:23:53.169Z,2.00
2023-04-11T19:28:58.229Z,2.75
2023-04-11T19:34:05.732Z,2.00
2023-04-11T19:39:12.108Z,2.50
2023-04-11T19:44:16.905Z,3.00
2023-04-11T19:49:21.506Z,2.00
2023-04-11T19:54:26.241Z,1.50
2023-04-11T19:59:31.082Z,2.00
2023-04-11T20:04:36.291Z,2.00
2023-04-11T20:09:41.373Z,1.00
2023-04-11T20:14:46.296Z,2.00
2023-04-11T20:19:54.550Z,1.50
2023-04-11T20:24:59.325Z,3.00
2023-04-11T20:30:08.114Z,2.00
2023-04-11T20:35:13.429Z,1.75
2023-04-11T20:40:18.824Z,2.00
2023-04-11T20:45:23.848Z,1.25
2023-04-11T20:50:34.699Z,2.50
2023-04-11T20:55:39.966Z,3.00
2023-04-11T21:00:44.833Z,1.50
2023-04-11T21:05:52.355Z,2.75
2023-04-11T21:10:57.711Z,1.75
2023-04-11T21:16:02.753Z,2.00
2023-04-11T21:21:08.398Z,2.00
2023-04-11T21:26:13.160Z,1.25
2023-04-11T21:31:18.199Z,1.00
2023-04-11T21:36:23.212Z,2.00
2023-04-11T21:41:28.041Z,1.50
2023-04-11T21:46:33.700Z,2.00
2023-04-11T21:51:38.543Z,1.00
2023-04-11T21:56:45.085Z,1.00
2023-04-11T22:01:49.963Z,2.75
2023-04-11T22:06:55.484Z,1.00
2023-04-11T22:12:00.500Z,2.00
2023-04-11T22:17:05.742Z,1.00
2023-04-11T22:22:11.534Z,1.00
2023-04-11T22:27:20.883Z,1.00
2023-04-11T22:32:26.047Z,1.75
2023-04-11T22:37:31.111Z,4.00
2023-04-11T22:42:37.125Z,2.00
2023-04-11T22:47:46.773Z,2.00
2023-04-11T22:52:51.670Z,2.50
2023-04-11T22:57:56.721Z,1.50
2023-04-11T23:03:01.435Z,3.25
2023-04-11T23:08:06.657Z,4.00
2023-04-11T23:13:12.238Z,5.00
2023-04-11T23:18:17.170Z,8.00
2023-04-11T23:23:22.103Z,9.75
2023-04-11T23:28:26.934Z,16.00
2023-04-11T23:33:32.242Z,9.75
2023-04-11T23:38:38.468Z,8.00
2023-04-11T23:43:43.388Z,9.75
2023-04-11T23:48:48.510Z,7.75
2023-04-11T23:53:53.794Z,5.25
2023-04-11T23:58:58.861Z,5.75
